Airfield :
LOGIN :

Register | Disclaimer

   EN    FR    IT 

 










Legend :    VFR   Marginal VFR   IFR   Intensive IFR   Very Intensive IFR
Visi :
Ceiling :
>= 8 km
>= 3000ft
5 to 8 km
1000 to 3000 ft
1500m to 5 km
500 to 1000 ft
800 to 1500m
200 to 500 ft
< 800m
< 200 ft
Symbols :   Thunderstorms  Fog  Heavy snow  Heavy precipitations  Wind > 20 kt
SIGMETs :     Misc.  Thunderstorms  Icing  Turbulence  Mountain Waves  Volcanic Ashes






- Airport Elevation : 764 ft
- IATA code : YEI


LTBR - Yenisehir AB

CURRENT METAR :
  • 221720Z 08004KT CAVOK 00/M01 Q1025 NOSIG RMK RWY07 04004KT

EXPIRED METARs :
  • 221650Z VRB02KT CAVOK 01/M01 Q1025 NOSIG RMK RWY07 00000KT
  • 221620Z 22003KT CAVOK 03/M00 Q1025 NOSIG RMK RWY07 VRB01KT
  • 221550Z 22003KT CAVOK 03/M01 Q1026 NOSIG RMK RWY07 27003KT 220V290
  • 221520Z 27004KT CAVOK 03/M01 Q1025 NOSIG RMK RWY07 26005KT
  • 221450Z 24004KT CAVOK 06/M01 Q1025 NOSIG RMK RWY07 23003KT

TAF TAF LTBR
Valid from the 22 at 18:00 until the 23 at 18:00 UTC


221640Z 2218/2318 VRB02KT CAVOK
BECMG 2220/2224 4500 BR
PROB30
TEMPO 2300/2303 1200 BCFG
BECMG 2303/2306 9999 NSW FEW010 BKN025
BECMG 2307/2310 36012KT -SHRA
PROB40
TEMPO 2310/2314 35015G27KT -SHSN
PROB40
TEMPO 2314/2318 -SHSN



MET'MAP, your aeronautical weather chart ! - Copyright ORBIFLY December 2007 - Disclaimer

ORBIFLY MET'MAP TEAM :

Programming & Development : Alexandra Zaïnal
Concept & original design : Baudouin d'Aumeries
Assistance for programming : Marc-Olivier Méhu
Technical & hardware support : Manuel Goepfert

Contact : metmap@orbifly.com




SOURCES & CREDITS :

   NOAA